LFBA

Agen-La Garenne Airport

Airport
ICAO code
LFBA
IATA Code
AGF
Summary
ICAO Region
EUR
ICAO Territory
Location

Agen, Aquitaine

Serving
Agen
Elevation
204 ft
Coordinates
44° 10' 29" N , 0° 35' 26" E
Metar
LFBA 201730Z AUTO 12003KT 9999 RA FEW027/// BKN074/// OVC096/// ///CB 17/16 Q1017 TEMPO 4000 RA BKN012 FEW025CB SCT040TCU

Runways

Designator Length Width Surface Rops
11/29 2165 30 ASP No/No

Airport map

Aerial View

SKYbrary Partners:

Safety knowledge contributed by: